createdAt,value
2018-12-20T00:00:43.349Z,4.40
2018-12-20T00:03:15.785Z,4.40
2018-12-20T00:05:50.292Z,4.30
2018-12-20T00:08:25.231Z,4.40
2018-12-20T00:10:55.364Z,4.40
2018-12-20T00:13:40.495Z,4.40
2018-12-20T00:16:12.561Z,4.30
2018-12-20T00:18:44.469Z,4.30
2018-12-20T00:21:16.627Z,4.30
2018-12-20T00:23:48.690Z,4.20
2018-12-20T00:26:18.131Z,4.30
2018-12-20T00:31:55.298Z,4.30
2018-12-20T00:34:27.047Z,4.30
2018-12-20T00:36:59.114Z,4.40
2018-12-20T00:39:31.614Z,4.40
2018-12-20T00:42:06.184Z,4.40
2018-12-20T00:44:37.736Z,4.40
2018-12-20T00:53:08.624Z,4.30
2018-12-20T00:55:40.505Z,4.40
2018-12-20T00:58:11.837Z,4.40
2018-12-20T01:00:43.996Z,4.50
2018-12-20T01:03:15.487Z,4.40
2018-12-20T01:05:47.525Z,4.30
2018-12-20T01:08:19.057Z,4.30
2018-12-20T01:10:51.274Z,4.20
2018-12-20T01:13:23.526Z,4.20
2018-12-20T01:15:55.481Z,4.00
2018-12-20T01:18:27.621Z,4.10
2018-12-20T01:20:59.673Z,4.10
2018-12-20T01:29:31.810Z,4.00
2018-12-20T01:32:03.817Z,3.90
2018-12-20T01:34:35.922Z,3.90
2018-12-20T01:37:07.290Z,3.90
2018-12-20T01:39:42.244Z,4.00
2018-12-20T01:42:13.853Z,3.90
2018-12-20T01:44:53.352Z,3.90
2018-12-20T01:47:20.042Z,3.90
2018-12-20T01:49:50.298Z,4.00
2018-12-20T01:52:22.608Z,4.00
2018-12-20T01:54:57.998Z,4.10
2018-12-20T01:57:32.551Z,4.20
2018-12-20T02:00:08.422Z,4.10
2018-12-20T02:02:39.892Z,4.20
2018-12-20T02:05:10.062Z,4.30
2018-12-20T02:07:41.470Z,4.30
2018-12-20T02:10:16.164Z,4.30
2018-12-20T02:12:50.071Z,4.20
2018-12-20T02:15:18.778Z,4.20
2018-12-20T02:17:52.578Z,4.20
2018-12-20T02:20:24.806Z,4.10
2018-12-20T02:22:59.228Z,4.10
2018-12-20T02:25:30.910Z,4.00
2018-12-20T02:28:02.716Z,3.90
2018-12-20T02:30:34.967Z,4.00
2018-12-20T02:33:07.329Z,3.80
2018-12-20T02:35:42.193Z,3.90
2018-12-20T02:38:14.328Z,3.80
2018-12-20T02:40:46.522Z,3.80
2018-12-20T02:43:33.460Z,3.80
2018-12-20T02:46:05.435Z,3.80
2018-12-20T02:48:37.591Z,3.90
2018-12-20T02:51:09.531Z,3.90
2018-12-20T02:53:41.551Z,3.80
2018-12-20T02:56:13.628Z,3.80
2018-12-20T02:58:48.006Z,3.70
2018-12-20T03:06:34.925Z,3.90
2018-12-20T03:09:08.584Z,3.80
2018-12-20T03:11:42.350Z,3.90
2018-12-20T03:14:14.062Z,3.70
2018-12-20T03:16:46.681Z,3.70
2018-12-20T03:19:18.629Z,3.70
2018-12-20T03:27:48.266Z,3.40
2018-12-20T03:30:20.740Z,3.40
2018-12-20T03:32:53.522Z,3.40
2018-12-20T03:35:25.187Z,3.40
2018-12-20T03:37:57.374Z,3.30
2018-12-20T03:40:29.851Z,3.30
2018-12-20T03:43:01.962Z,3.30
2018-12-20T03:45:33.811Z,3.20
2018-12-20T03:48:05.963Z,3.20
2018-12-20T03:50:38.792Z,3.20
2018-12-20T03:53:10.497Z,3.20
2018-12-20T03:55:49.194Z,3.20
2018-12-20T03:58:21.753Z,3.30
2018-12-20T04:00:53.395Z,3.30
2018-12-20T04:03:40.683Z,3.40
2018-12-20T04:06:14.614Z,3.40
2018-12-20T04:08:42.945Z,3.40
2018-12-20T04:11:14.354Z,3.50
2018-12-20T04:19:51.883Z,3.30
2018-12-20T04:22:23.950Z,3.40
2018-12-20T04:24:55.809Z,3.40
2018-12-20T04:27:28.087Z,3.40
2018-12-20T04:29:59.991Z,3.40
2018-12-20T04:32:32.186Z,3.40
2018-12-20T04:35:03.790Z,3.50
2018-12-20T04:37:35.944Z,3.50
2018-12-20T04:43:06.463Z,3.60
2018-12-20T04:48:33.970Z,3.70
2018-12-20T04:51:08.646Z,3.70
2018-12-20T04:53:38.088Z,3.70
2018-12-20T04:56:09.729Z,3.70
2018-12-20T04:58:41.760Z,3.70
2018-12-20T05:01:10.331Z,3.70
2018-12-20T05:03:42.436Z,3.50
2018-12-20T05:06:14.747Z,3.40
2018-12-20T05:08:46.334Z,3.50
2018-12-20T05:11:18.421Z,3.60
2018-12-20T05:13:48.018Z,3.60
2018-12-20T05:16:19.980Z,3.80
2018-12-20T05:18:51.896Z,3.80
2018-12-20T05:21:25.687Z,3.80
2018-12-20T05:23:57.464Z,3.80
2018-12-20T05:26:25.759Z,3.70
2018-12-20T05:28:59.771Z,3.70
2018-12-20T05:31:31.200Z,3.80
2018-12-20T05:34:03.852Z,3.80
2018-12-20T05:36:32.518Z,3.70
2018-12-20T05:39:01.721Z,3.70
2018-12-20T05:41:30.467Z,3.70
2018-12-20T05:46:54.911Z,3.90
2018-12-20T05:52:19.502Z,4.00
2018-12-20T05:54:47.794Z,4.10
2018-12-20T05:57:19.084Z,4.00
2018-12-20T05:59:47.751Z,4.10
2018-12-20T06:02:34.743Z,4.00
2018-12-20T06:05:04.561Z,3.90
2018-12-20T06:07:33.157Z,3.90
2018-12-20T06:10:01.576Z,3.80
2018-12-20T06:12:49.415Z,3.90
2018-12-20T06:15:17.998Z,3.90
2018-12-20T06:17:48.053Z,4.00
2018-12-20T06:20:16.498Z,3.90
2018-12-20T06:22:48.790Z,3.80
2018-12-20T06:25:17.301Z,3.90
2018-12-20T06:27:45.620Z,3.80
2018-12-20T06:30:17.489Z,3.80
2018-12-20T06:32:49.350Z,3.80
2018-12-20T06:35:19.095Z,3.90
2018-12-20T06:37:49.189Z,3.90
2018-12-20T06:40:21.225Z,3.90
2018-12-20T06:42:53.240Z,3.90
2018-12-20T06:45:25.477Z,3.90
2018-12-20T06:47:56.987Z,3.90
2018-12-20T06:59:33.497Z,4.00
2018-12-20T07:05:05.082Z,3.80
2018-12-20T07:07:34.945Z,3.90
2018-12-20T07:10:08.600Z,3.90
2018-12-20T07:12:42.969Z,4.00
2018-12-20T07:15:14.708Z,4.00
2018-12-20T07:17:46.092Z,4.00
2018-12-20T07:20:18.431Z,4.00
2018-12-20T07:22:50.653Z,4.00
2018-12-20T07:25:25.188Z,4.00
2018-12-20T07:30:52.829Z,4.00
2018-12-20T07:33:24.220Z,4.10
2018-12-20T07:35:58.816Z,4.10
2018-12-20T07:38:30.737Z,4.20
2018-12-20T07:41:00.630Z,4.20
2018-12-20T07:43:34.177Z,4.20
2018-12-20T07:46:05.934Z,4.30
2018-12-20T07:48:42.566Z,4.20
2018-12-20T07:51:14.100Z,4.20
2018-12-20T07:53:47.729Z,4.30
2018-12-20T07:56:19.255Z,4.40
2018-12-20T07:58:53.096Z,4.40
2018-12-20T08:01:27.157Z,4.60
2018-12-20T08:04:07.737Z,4.70
2018-12-20T08:06:39.095Z,4.70
2018-12-20T08:09:10.424Z,4.70
2018-12-20T08:11:42.540Z,4.70
2018-12-20T08:14:14.440Z,4.70
2018-12-20T08:16:48.952Z,4.70
2018-12-20T08:19:21.769Z,4.60
2018-12-20T08:21:53.750Z,4.70
2018-12-20T08:24:25.614Z,4.80
2018-12-20T08:27:00.236Z,4.80
2018-12-20T08:29:34.405Z,4.80
2018-12-20T08:32:06.037Z,4.80
2018-12-20T08:34:40.817Z,4.80
2018-12-20T08:37:12.358Z,4.70
2018-12-20T08:39:47.356Z,4.70
2018-12-20T08:42:18.678Z,4.70
2018-12-20T08:44:50.889Z,4.80
2018-12-20T08:47:24.570Z,4.80
2018-12-20T08:49:54.078Z,4.80
2018-12-20T08:52:26.206Z,4.70
2018-12-20T08:54:58.444Z,4.80
2018-12-20T08:57:30.589Z,4.90
2018-12-20T09:00:06.051Z,4.90
2018-12-20T09:02:37.745Z,4.90
2018-12-20T09:05:11.259Z,4.90
2018-12-20T09:07:42.965Z,5.00
2018-12-20T09:10:16.793Z,5.10
2018-12-20T09:12:57.252Z,5.10
2018-12-20T09:18:00.446Z,5.10
2018-12-20T09:20:32.830Z,5.20
2018-12-20T09:23:04.377Z,5.30
2018-12-20T09:25:34.046Z,5.40
2018-12-20T09:28:06.262Z,5.40
2018-12-20T09:30:38.491Z,5.50
2018-12-20T09:33:12.952Z,5.50
2018-12-20T09:35:44.566Z,5.50
2018-12-20T09:38:14.729Z,5.70
2018-12-20T09:40:50.479Z,5.70
2018-12-20T09:43:18.804Z,5.70
2018-12-20T09:45:50.962Z,5.70
2018-12-20T09:48:22.942Z,5.70
2018-12-20T09:50:54.285Z,5.70
2018-12-20T09:53:29.884Z,5.80
2018-12-20T09:56:03.789Z,5.90
2018-12-20T09:58:35.341Z,6.00
2018-12-20T10:04:08.463Z,6.10
2018-12-20T10:06:38.365Z,6.10
2018-12-20T10:09:10.522Z,6.10
2018-12-20T10:11:40.449Z,6.10
2018-12-20T10:14:23.832Z,6.00
2018-12-20T10:16:55.477Z,6.00
2018-12-20T10:19:29.232Z,6.00
2018-12-20T10:21:58.669Z,6.00
2018-12-20T10:24:30.738Z,5.90
2018-12-20T10:27:11.856Z,6.00
2018-12-20T10:29:44.066Z,6.00
2018-12-20T10:32:18.418Z,6.10
2018-12-20T10:34:48.257Z,6.00
2018-12-20T10:37:20.425Z,6.10
2018-12-20T10:39:52.715Z,6.20
2018-12-20T10:42:25.057Z,6.20
2018-12-20T10:44:57.021Z,6.30
2018-12-20T10:47:29.539Z,6.20
2018-12-20T10:49:58.906Z,6.10
2018-12-20T10:52:30.962Z,6.00
2018-12-20T10:55:05.565Z,6.00
2018-12-20T10:57:37.674Z,6.10
2018-12-20T11:00:08.812Z,5.90
2018-12-20T11:06:44.249Z,5.80
2018-12-20T11:09:21.610Z,5.80
2018-12-20T11:11:58.653Z,5.80
2018-12-20T11:14:30.234Z,5.90
2018-12-20T11:19:53.261Z,5.90
2018-12-20T11:22:21.723Z,5.90
2018-12-20T11:24:53.937Z,6.00
2018-12-20T11:30:18.438Z,6.10
2018-12-20T11:32:48.163Z,6.10
2018-12-20T11:35:16.538Z,6.10
2018-12-20T11:37:45.024Z,6.00
2018-12-20T11:40:25.335Z,6.00
2018-12-20T11:42:53.573Z,6.10
2018-12-20T11:48:16.225Z,6.20
2018-12-20T11:50:45.998Z,6.30
2018-12-20T11:53:20.531Z,6.20
2018-12-20T11:55:50.281Z,6.20
2018-12-20T11:58:20.537Z,6.20
2018-12-20T12:00:52.570Z,6.20
2018-12-20T12:06:20.600Z,6.40
2018-12-20T12:08:52.825Z,6.40
2018-12-20T12:11:24.681Z,6.40
2018-12-20T12:13:56.741Z,6.50
2018-12-20T12:16:28.844Z,6.60
2018-12-20T12:19:00.309Z,6.60
2018-12-20T12:21:34.837Z,6.60
2018-12-20T12:24:09.145Z,6.50
2018-12-20T12:26:37.549Z,6.60
2018-12-20T12:29:06.116Z,6.60
2018-12-20T12:31:40.433Z,6.60
2018-12-20T12:37:07.257Z,6.50
2018-12-20T12:39:39.368Z,6.50
2018-12-20T12:42:11.493Z,6.50
2018-12-20T12:44:41.723Z,6.50
2018-12-20T12:47:13.756Z,6.50
2018-12-20T12:49:45.416Z,6.40
2018-12-20T12:52:17.549Z,6.50
2018-12-20T12:54:49.741Z,6.50
2018-12-20T12:57:22.418Z,6.60
2018-12-20T12:59:54.822Z,6.60
2018-12-20T13:02:28.701Z,6.70
2018-12-20T13:08:05.402Z,6.80
2018-12-20T13:10:35.008Z,7.00
2018-12-20T13:13:03.582Z,7.00
2018-12-20T13:15:31.969Z,7.10
2018-12-20T13:18:13.519Z,7.10
2018-12-20T13:20:35.364Z,7.10
2018-12-20T13:23:03.764Z,7.20
2018-12-20T13:25:32.143Z,7.10
2018-12-20T13:33:52.290Z,6.90
2018-12-20T13:36:20.700Z,6.80
2018-12-20T13:38:49.246Z,6.70
2018-12-20T13:41:17.820Z,6.70
2018-12-20T13:43:46.501Z,6.70
2018-12-20T13:46:15.106Z,6.60
2018-12-20T13:48:46.114Z,6.60
2018-12-20T13:51:14.284Z,6.60
2018-12-20T13:53:42.707Z,6.60
2018-12-20T13:56:26.131Z,6.60
2018-12-20T13:58:54.380Z,6.60
2018-12-20T14:01:22.604Z,6.50
2018-12-20T14:04:03.746Z,6.50
2018-12-20T14:06:32.020Z,6.50
2018-12-20T14:09:07.692Z,6.40
2018-12-20T14:11:38.029Z,6.40
2018-12-20T14:14:06.287Z,6.40
2018-12-20T14:16:46.638Z,6.30
2018-12-20T14:19:21.020Z,6.20
2018-12-20T14:21:49.491Z,6.20
2018-12-20T14:24:35.829Z,6.10
2018-12-20T14:29:33.522Z,6.00
2018-12-20T14:38:11.479Z,5.80
2018-12-20T14:43:36.111Z,5.70
2018-12-20T14:46:04.532Z,5.80
2018-12-20T14:48:44.833Z,5.80
2018-12-20T14:51:33.921Z,5.90
2018-12-20T14:54:05.180Z,5.90
2018-12-20T14:56:33.341Z,5.90
2018-12-20T15:01:58.122Z,5.80
2018-12-20T15:04:26.672Z,5.70
2018-12-20T15:06:55.006Z,5.70
2018-12-20T15:09:29.022Z,5.70
2018-12-20T15:11:57.232Z,5.60
2018-12-20T15:14:28.799Z,5.60
2018-12-20T15:16:56.976Z,5.50
2018-12-20T15:19:25.406Z,5.40
2018-12-20T15:21:53.694Z,5.40
2018-12-20T15:24:21.942Z,5.40
2018-12-20T15:26:50.301Z,5.40
2018-12-20T15:29:18.504Z,5.40
2018-12-20T15:31:53.370Z,5.40
2018-12-20T15:34:16.914Z,5.40
2018-12-20T15:36:45.090Z,5.40
2018-12-20T15:39:14.184Z,5.40
2018-12-20T15:41:42.618Z,5.30
2018-12-20T15:44:10.809Z,5.30
2018-12-20T15:46:38.964Z,5.20
2018-12-20T15:49:07.225Z,5.10
2018-12-20T15:51:35.498Z,5.00
2018-12-20T15:54:03.853Z,4.90
2018-12-20T15:56:32.057Z,4.90
2018-12-20T15:59:00.245Z,4.80
2018-12-20T16:01:28.644Z,4.90
2018-12-20T16:03:56.888Z,4.90
2018-12-20T16:06:25.099Z,4.80
2018-12-20T16:08:53.269Z,4.70
2018-12-20T16:11:21.448Z,4.70
2018-12-20T16:13:49.712Z,4.70
2018-12-20T16:16:17.914Z,4.60
2018-12-20T16:18:46.094Z,4.70
2018-12-20T16:21:14.818Z,4.70
2018-12-20T16:23:46.660Z,4.60
2018-12-20T16:26:14.850Z,4.60
2018-12-20T16:28:43.120Z,4.50
2018-12-20T16:31:11.332Z,4.60
2018-12-20T16:33:39.523Z,4.60
2018-12-20T16:36:07.810Z,4.50
2018-12-20T16:38:36.195Z,4.60
2018-12-20T16:41:04.476Z,4.60
2018-12-20T16:43:32.636Z,4.70
2018-12-20T16:46:01.676Z,4.70
2018-12-20T16:48:30.814Z,4.70
2018-12-20T16:50:59.018Z,4.70
2018-12-20T16:53:27.299Z,4.80
2018-12-20T16:55:55.590Z,4.80
2018-12-20T16:58:23.801Z,4.70
2018-12-20T17:00:52.102Z,4.70
2018-12-20T17:03:20.450Z,4.60
2018-12-20T17:05:48.631Z,4.60
2018-12-20T17:08:16.880Z,4.50
2018-12-20T17:10:45.503Z,4.50
2018-12-20T17:13:13.788Z,4.60
2018-12-20T17:15:42.063Z,4.60
2018-12-20T17:18:10.330Z,4.60
2018-12-20T17:20:38.535Z,4.60
2018-12-20T17:23:06.753Z,4.70
2018-12-20T17:25:35.038Z,4.80
2018-12-20T17:28:03.653Z,4.70
2018-12-20T17:30:31.866Z,4.80
2018-12-20T17:33:00.293Z,4.90
2018-12-20T17:35:29.315Z,4.90
2018-12-20T17:37:57.490Z,4.90
2018-12-20T17:40:25.788Z,5.00
2018-12-20T17:42:57.501Z,5.00
2018-12-20T17:45:29.664Z,5.00
2018-12-20T17:47:59.786Z,4.90
2018-12-20T17:50:31.759Z,4.90
2018-12-20T17:53:03.713Z,4.90
2018-12-20T18:02:08.082Z,5.00
2018-12-20T18:04:40.266Z,5.00
2018-12-20T18:07:10.486Z,5.00
2018-12-20T18:09:40.594Z,5.00
2018-12-20T18:12:13.097Z,5.00
2018-12-20T18:14:44.652Z,5.00
2018-12-20T18:17:19.022Z,5.00
2018-12-20T18:22:45.577Z,5.10
2018-12-20T18:25:16.971Z,5.10
2018-12-20T18:28:01.903Z,5.10
2018-12-20T18:30:33.505Z,5.10
2018-12-20T18:36:02.621Z,5.10
2018-12-20T18:38:53.484Z,5.10
2018-12-20T18:41:25.136Z,5.00
2018-12-20T18:49:50.146Z,4.90
2018-12-20T18:52:40.714Z,4.90
2018-12-20T19:01:07.082Z,4.90
2018-12-20T19:03:41.188Z,4.90
2018-12-20T19:06:15.212Z,4.90
2018-12-20T19:08:46.668Z,5.00
2018-12-20T19:11:33.550Z,5.00
2018-12-20T19:14:20.075Z,5.20
2018-12-20T19:19:56.674Z,5.10
2018-12-20T19:25:24.244Z,5.10
2018-12-20T19:30:52.161Z,5.10
2018-12-20T19:33:24.013Z,5.10
2018-12-20T19:35:55.759Z,5.00
2018-12-20T19:38:28.056Z,5.00
2018-12-20T19:41:02.658Z,5.00
2018-12-20T19:43:31.313Z,5.10
2018-12-20T19:45:59.768Z,5.10
2018-12-20T19:48:30.998Z,5.10
2018-12-20T19:53:58.564Z,5.20
2018-12-20T19:56:26.805Z,5.30
2018-12-20T19:58:54.997Z,5.30
2018-12-20T20:01:23.486Z,5.30
2018-12-20T20:03:51.765Z,5.30
2018-12-20T20:06:20.160Z,5.30
2018-12-20T20:08:48.421Z,5.30
2018-12-20T20:11:16.597Z,5.20
2018-12-20T20:13:44.791Z,5.20
2018-12-20T20:16:12.984Z,5.20
2018-12-20T20:18:41.186Z,5.20
2018-12-20T20:21:09.484Z,5.20
2018-12-20T20:23:37.665Z,5.30
2018-12-20T20:26:05.896Z,5.30
2018-12-20T20:28:34.070Z,5.30
2018-12-20T20:31:02.633Z,5.20
2018-12-20T20:33:30.905Z,5.20
2018-12-20T20:35:59.064Z,5.10
2018-12-20T20:38:27.464Z,5.00
2018-12-20T20:40:56.739Z,5.00
2018-12-20T20:43:24.920Z,5.00
2018-12-20T20:45:53.226Z,5.00
2018-12-20T20:48:21.380Z,4.90
2018-12-20T20:50:49.573Z,4.90
2018-12-20T20:53:18.053Z,4.80
2018-12-20T20:55:46.236Z,4.80
2018-12-20T20:58:14.408Z,4.70
2018-12-20T21:00:42.813Z,4.60
2018-12-20T21:03:11.008Z,4.70
2018-12-20T21:05:39.260Z,4.70
2018-12-20T21:08:07.522Z,4.80
2018-12-20T21:10:35.715Z,4.80
2018-12-20T21:13:03.906Z,4.80
2018-12-20T21:15:32.092Z,4.80
2018-12-20T21:18:00.289Z,4.80
2018-12-20T21:20:30.901Z,4.80
2018-12-20T21:22:58.708Z,4.70
2018-12-20T21:25:26.891Z,4.70
2018-12-20T21:27:55.068Z,4.60
2018-12-20T21:30:23.236Z,4.60
2018-12-20T21:32:51.416Z,4.60
2018-12-20T21:35:19.672Z,4.60
2018-12-20T21:37:47.868Z,4.50
2018-12-20T21:40:16.293Z,4.50
2018-12-20T21:42:44.508Z,4.50
2018-12-20T21:45:12.843Z,4.50
2018-12-20T21:47:41.217Z,4.40
2018-12-20T21:50:10.877Z,4.40
2018-12-20T21:52:39.179Z,4.30
2018-12-20T21:55:08.877Z,4.40
2018-12-20T21:57:38.346Z,4.40
2018-12-20T22:00:09.241Z,4.50
2018-12-20T22:02:38.145Z,4.40
2018-12-20T22:05:08.475Z,4.40
2018-12-20T22:10:23.214Z,4.40
2018-12-20T22:12:51.644Z,4.40
2018-12-20T22:15:19.849Z,4.40
2018-12-20T22:17:48.019Z,4.50
2018-12-20T22:20:16.235Z,4.50
2018-12-20T22:22:44.845Z,4.50
2018-12-20T22:25:13.053Z,4.50
2018-12-20T22:27:41.263Z,4.50
2018-12-20T22:30:10.246Z,4.60
2018-12-20T22:32:39.059Z,4.60
2018-12-20T22:35:08.489Z,4.60
2018-12-20T22:37:36.692Z,4.70
2018-12-20T22:40:06.977Z,4.70
2018-12-20T22:42:35.388Z,4.70
2018-12-20T22:45:06.675Z,4.70
2018-12-20T22:47:34.881Z,4.70
2018-12-20T22:50:04.333Z,4.70
2018-12-20T22:52:32.516Z,4.70
2018-12-20T22:55:02.330Z,4.70
2018-12-20T22:57:30.635Z,4.60
2018-12-20T22:59:58.821Z,4.60
2018-12-20T23:02:27.008Z,4.60
2018-12-20T23:04:55.387Z,4.50
2018-12-20T23:07:23.661Z,4.50
2018-12-20T23:09:52.171Z,4.50
2018-12-20T23:12:22.335Z,4.60
2018-12-20T23:14:50.700Z,4.60
2018-12-20T23:17:19.003Z,4.60
2018-12-20T23:19:47.397Z,4.60
2018-12-20T23:22:15.868Z,4.60
2018-12-20T23:24:44.136Z,4.60
2018-12-20T23:27:12.336Z,4.60
2018-12-20T23:29:40.515Z,4.70
2018-12-20T23:32:08.856Z,4.70
2018-12-20T23:34:38.080Z,4.70
2018-12-20T23:37:06.277Z,4.80
2018-12-20T23:39:34.474Z,4.70
2018-12-20T23:42:03.177Z,4.70
2018-12-20T23:44:31.610Z,4.70
2018-12-20T23:46:59.885Z,4.70
2018-12-20T23:49:28.277Z,4.60
2018-12-20T23:51:56.453Z,4.70
2018-12-20T23:54:24.639Z,4.70
2018-12-20T23:56:52.801Z,4.70
2018-12-20T23:59:21.056Z,4.70
